Time;durP1;ratioP1;P1;durP2;ratioP2;P2;SDS_P1;SDS_P2;PMS_P1;PMS_P2;Temp;Humidity;BMP_temperature;BMP_pressure;BME280_temperature;BME280_humidity;BME280_pressure;Samples;Min_cycle;Max_cycle;Signal;HPM_P1;HPM_P2
2023/10/11 00:23:17;;;;;;;13.97;7.47;;;12.70;99.90;;;;;;2585977;54;20313;31
2023/10/11 00:47:25;;;;;;;13.50;7.15;;;12.70;99.90;;;;;;2607566;54;20028;31
2023/10/11 00:50:21;;;;;;;12.10;6.38;;;12.70;99.90;;;;;;2606577;54;20030;31
2023/10/11 00:56:37;;;;;;;13.45;8.00;;;12.70;99.90;;;;;;2625874;46;20908;31
2023/10/11 01:08:10;;;;;;;14.43;7.80;;;12.70;99.90;;;;;;2625505;46;20059;31
2023/10/11 01:14:36;;;;;;;13.43;7.63;;;12.70;99.90;;;;;;2607028;54;20030;31
2023/10/11 01:17:33;;;;;;;12.15;8.32;;;12.70;99.90;;;;;;2607085;54;20672;31
2023/10/11 01:32:26;;;;;;;13.88;7.88;;;12.60;99.90;;;;;;2610594;46;20874;31
2023/10/11 01:35:18;;;;;;;15.18;8.50;;;12.60;99.90;;;;;;2607288;54;20030;31
2023/10/11 01:38:04;;;;;;;14.20;8.25;;;12.70;99.90;;;;;;2607266;54;20861;31
2023/10/11 01:56:39;;;;;;;16.15;9.05;;;12.80;99.90;;;;;;2604526;46;20080;31
2023/10/11 02:00:06;;;;;;;17.60;8.75;;;12.80;99.90;;;;;;2617149;46;20030;31
2023/10/11 02:03:14;;;;;;;10.60;7.10;;;12.80;99.90;;;;;;2603550;54;20030;31
2023/10/11 02:06:04;;;;;;;16.70;7.65;;;12.70;99.90;;;;;;2603427;54;20030;31
2023/10/11 02:12:17;;;;;;;15.48;8.88;;;12.70;99.90;;;;;;2603634;54;20767;31
2023/10/11 02:18:43;;;;;;;11.15;7.00;;;12.70;99.90;;;;;;2603689;54;20120;31
2023/10/11 02:21:47;;;;;;;17.17;8.85;;;12.70;99.90;;;;;;2603370;54;20924;31
2023/10/11 02:24:35;;;;;;;14.52;9.00;;;12.70;99.90;;;;;;2603633;54;21371;31
2023/10/11 02:27:17;;;;;;;15.00;8.55;;;12.70;99.90;;;;;;2603461;54;20034;31
2023/10/11 02:30:21;;;;;;;17.40;9.00;;;12.70;99.90;;;;;;2603513;54;20029;31
2023/10/11 02:33:01;;;;;;;16.10;9.40;;;12.70;99.90;;;;;;2622051;46;20172;31
2023/10/11 02:35:56;;;;;;;14.57;8.40;;;12.70;99.90;;;;;;2603614;54;20833;31
2023/10/11 02:38:38;;;;;;;15.57;9.35;;;12.70;99.90;;;;;;2701775;39;20472;31
2023/10/11 02:41:24;;;;;;;18.35;9.38;;;12.70;99.90;;;;;;2602697;54;20037;31
2023/10/11 02:44:04;;;;;;;14.45;8.10;;;12.60;99.90;;;;;;2603592;54;20026;31
2023/10/11 02:46:45;;;;;;;14.20;8.18;;;12.70;99.90;;;;;;2702206;39;20428;31
2023/10/11 02:52:35;;;;;;;14.80;8.25;;;12.60;99.90;;;;;;2603726;54;20033;31
2023/10/11 02:55:21;;;;;;;17.80;10.05;;;12.60;99.90;;;;;;2621930;46;20081;31
2023/10/11 02:58:29;;;;;;;14.05;8.75;;;12.60;99.90;;;;;;2603538;54;20058;31
2023/10/11 03:01:14;;;;;;;12.53;7.30;;;12.60;99.90;;;;;;2602975;54;20027;31
2023/10/11 03:03:57;;;;;;;14.60;8.98;;;12.60;99.90;;;;;;2603273;54;20037;31
2023/10/11 03:06:37;;;;;;;14.75;9.23;;;12.60;99.90;;;;;;2602589;54;20026;31
2023/10/11 03:09:18;;;;;;;16.15;10.40;;;12.60;99.90;;;;;;2603879;54;20025;31
2023/10/11 03:12:06;;;;;;;20.40;10.35;;;12.50;99.90;;;;;;2621804;46;20038;31
2023/10/11 03:17:52;;;;;;;26.02;10.10;;;12.50;99.90;;;;;;2603361;54;20080;31
2023/10/11 03:20:46;;;;;;;18.30;9.50;;;12.50;99.90;;;;;;2603391;54;20801;31
2023/10/11 03:23:54;;;;;;;14.15;8.65;;;12.50;99.90;;;;;;2603228;54;20234;31
2023/10/11 03:30:23;;;;;;;15.00;8.50;;;12.50;99.90;;;;;;2603445;54;20809;31
2023/10/11 03:33:29;;;;;;;18.73;10.00;;;12.50;99.90;;;;;;2603123;54;20100;31
2023/10/11 03:36:34;;;;;;;20.45;10.80;;;12.50;99.90;;;;;;2603454;54;20085;31
2023/10/11 03:39:26;;;;;;;18.67;10.38;;;12.50;99.90;;;;;;2603438;54;20869;31
2023/10/11 03:42:54;;;;;;;17.20;9.90;;;12.50;99.90;;;;;;2618976;46;20033;31
2023/10/11 03:51:11;;;;;;;18.23;10.93;;;12.50;99.90;;;;;;2603271;54;19941;31
2023/10/11 03:53:58;;;;;;;18.50;10.50;;;12.50;99.90;;;;;;2603391;54;20120;31
2023/10/11 03:56:55;;;;;;;17.38;9.27;;;12.50;99.90;;;;;;2700823;39;20394;31
2023/10/11 03:59:53;;;;;;;20.40;11.60;;;12.60;99.90;;;;;;2603186;54;20030;31
2023/10/11 04:02:32;;;;;;;17.92;10.27;;;12.50;99.90;;;;;;2621569;46;20034;31
2023/10/11 04:05:28;;;;;;;14.75;9.50;;;12.60;99.90;;;;;;2603145;54;20027;31
2023/10/11 04:08:25;;;;;;;17.40;11.05;;;12.50;99.90;;;;;;2603350;54;20033;31
2023/10/11 04:11:18;;;;;;;17.77;10.73;;;12.60;99.90;;;;;;2603111;54;20023;31
2023/10/11 04:14:04;;;;;;;26.05;10.50;;;12.60;99.90;;;;;;2603283;54;20034;31
2023/10/11 04:16:44;;;;;;;20.75;11.50;;;12.60;99.90;;;;;;2603122;54;20858;31
2023/10/11 04:19:26;;;;;;;15.70;9.60;;;12.50;99.90;;;;;;2621439;46;20124;31
2023/10/11 04:22:12;;;;;;;18.27;10.77;;;12.50;99.90;;;;;;2603080;54;20030;31
2023/10/11 04:24:55;;;;;;;19.10;11.50;;;12.50;99.90;;;;;;2602872;54;20250;31
2023/10/11 04:27:55;;;;;;;19.15;10.95;;;12.50;99.90;;;;;;2603362;54;20737;31
2023/10/11 04:30:43;;;;;;;20.90;10.50;;;12.50;99.90;;;;;;2621525;46;20271;31
2023/10/11 04:33:37;;;;;;;17.00;9.88;;;12.50;99.90;;;;;;2621695;46;20065;31
2023/10/11 04:39:27;;;;;;;18.55;10.82;;;12.40;99.90;;;;;;2602635;54;20045;31
2023/10/11 04:42:14;;;;;;;21.25;10.40;;;12.50;99.90;;;;;;2701582;39;21390;31
2023/10/11 04:44:59;;;;;;;16.92;10.43;;;12.40;99.90;;;;;;2602893;54;20031;31
2023/10/11 04:47:56;;;;;;;22.10;11.98;;;12.40;99.90;;;;;;2621567;47;20030;31
2023/10/11 04:50:44;;;;;;;19.10;11.35;;;12.40;99.90;;;;;;2621337;47;20832;31
2023/10/11 04:53:54;;;;;;;21.75;11.35;;;12.40;99.90;;;;;;2603223;54;20033;31
2023/10/11 05:00:08;;;;;;;24.40;12.02;;;12.40;99.90;;;;;;2602960;54;21660;31
2023/10/11 05:03:07;;;;;;;19.45;11.40;;;12.30;99.90;;;;;;2603143;54;20034;31
2023/10/11 05:20:44;;;;;;;21.02;11.13;;;12.30;99.90;;;;;;2620980;47;20560;31
2023/10/11 05:23:52;;;;;;;22.80;11.57;;;12.30;99.90;;;;;;2701578;39;20485;31
2023/10/11 05:26:47;;;;;;;62.13;26.38;;;12.30;99.90;;;;;;2603594;54;20031;31
2023/10/11 05:29:31;;;;;;;597.55;247.55;;;12.30;99.90;;;;;;2622562;46;20089;31
2023/10/11 05:35:07;;;;;;;186.77;79.18;;;12.30;99.90;;;;;;2603662;54;20886;31
2023/10/11 05:52:25;;;;;;;18.03;11.33;;;12.80;99.90;;;;;;2702288;39;21532;31
2023/10/11 05:55:12;;;;;;;20.77;10.33;;;13.00;99.90;;;;;;2603714;54;20022;31
2023/10/11 05:57:48;;;;;;;17.92;11.05;;;13.00;99.90;;;;;;2720407;39;20717;31
2023/10/11 06:00:34;;;;;;;26.00;11.15;;;13.20;99.90;;;;;;2603779;54;20820;31
2023/10/11 06:03:16;;;;;;;15.95;9.50;;;13.40;99.90;;;;;;2603523;54;20105;31
2023/10/11 06:05:59;;;;;;;14.77;8.93;;;13.60;99.90;;;;;;2603842;54;20026;31
2023/10/11 06:08:39;;;;;;;16.05;10.05;;;13.80;99.90;;;;;;2603507;54;20922;31
2023/10/11 06:11:19;;;;;;;17.60;8.57;;;14.00;99.90;;;;;;2621773;46;20038;31
2023/10/11 06:14:04;;;;;;;12.13;7.78;;;14.20;99.90;;;;;;2602675;54;21128;31
2023/10/11 06:16:49;;;;;;;15.05;7.07;;;14.50;99.90;;;;;;2603440;54;20038;31
2023/10/11 06:19:28;;;;;;;17.60;8.20;;;14.80;99.90;;;;;;2602831;54;20851;31
2023/10/11 06:22:23;;;;;;;;;;;;;;;;;;;;;
2023/10/11 06:25:07;;;;;;;11.05;7.10;;;15.20;99.90;;;;;;2622039;46;20033;31
2023/10/11 06:30:42;;;;;;;11.30;6.55;;;15.50;99.90;;;;;;2603539;54;20026;31
2023/10/11 06:33:34;;;;;;;11.60;6.22;;;15.80;99.90;;;;;;2603445;54;20023;31
2023/10/11 06:36:18;;;;;;;10.63;6.30;;;16.10;99.90;;;;;;2603491;54;20030;31
2023/10/11 06:39:33;;;;;;;12.00;6.22;;;16.40;99.90;;;;;;2603310;54;20026;31
2023/10/11 06:42:06;;;;;;;9.63;5.47;;;16.80;99.90;;;;;;2702215;39;20400;31
2023/10/11 06:44:57;;;;;;;8.90;5.00;;;17.00;99.90;;;;;;2622166;46;20026;31
2023/10/11 06:47:36;;;;;;;8.90;5.25;;;17.30;99.90;;;;;;2621465;46;20032;31
2023/10/11 06:50:15;;;;;;;9.05;4.75;;;17.70;99.90;;;;;;2602530;54;20855;31
2023/10/11 06:52:57;;;;;;;10.90;5.40;;;18.10;99.90;;;;;;2602822;54;20027;31
2023/10/11 06:55:39;;;;;;;;;;;18.30;99.90;;;;;;2702381;39;20593;31
2023/10/11 06:58:19;;;;;;;13.00;5.43;;;18.70;99.90;;;;;;2622133;46;20466;31
2023/10/11 07:00:59;;;;;;;9.45;4.88;;;19.00;99.90;;;;;;2603340;54;20762;31
2023/10/11 07:03:39;;;;;;;9.60;4.70;;;19.20;99.90;;;;;;2603403;54;20078;31
2023/10/11 07:06:25;;;;;;;9.38;4.43;;;19.40;99.90;;;;;;2603109;54;20030;31
2023/10/11 07:09:19;;;;;;;7.90;4.30;;;19.60;99.90;;;;;;2622151;46;20044;31
2023/10/11 07:12:28;;;;;;;11.15;4.90;;;19.70;99.90;;;;;;2603445;54;20930;31
2023/10/11 07:14:57;;;;;;;9.95;4.70;;;19.90;99.90;;;;;;2603337;54;20801;31
2023/10/11 07:17:37;;;;;;;8.57;4.43;;;20.00;99.90;;;;;;2621656;46;21573;31
2023/10/11 07:20:29;;;;;;;8.40;4.28;;;20.10;99.90;;;;;;2603474;54;20876;31
2023/10/11 07:23:09;;;;;;;6.65;4.00;;;20.10;99.90;;;;;;2603423;54;20869;31
2023/10/11 07:25:47;;;;;;;8.18;4.35;;;20.40;99.90;;;;;;2714172;39;21521;31
2023/10/11 07:28:36;;;;;;;8.60;4.70;;;20.60;99.90;;;;;;2603508;54;20771;31
2023/10/11 07:33:55;;;;;;;7.53;4.00;;;20.90;99.90;;;;;;2603328;54;20901;31
2023/10/11 07:36:32;;;;;;;11.93;4.03;;;21.10;99.90;;;;;;2621944;46;20081;31
2023/10/11 07:39:19;;;;;;;7.60;4.00;;;21.30;99.90;;;;;;2614391;46;20037;31
2023/10/11 07:42:18;;;;;;;;;;;21.50;99.90;;;;;;2622063;46;20042;31
2023/10/11 07:45:00;;;;;;;9.63;4.07;;;21.50;99.90;;;;;;2603257;54;19958;31
2023/10/11 07:47:39;;;;;;;7.40;3.78;;;21.60;99.90;;;;;;2603415;54;20842;31
2023/10/11 07:50:25;;;;;;;6.45;3.70;;;21.70;99.90;;;;;;2603588;54;20030;31
2023/10/11 07:53:13;;;;;;;10.80;3.90;;;21.60;99.90;;;;;;2603319;54;20030;31
2023/10/11 07:55:59;;;;;;;7.28;3.47;;;21.70;99.90;;;;;;2622012;46;20901;31
2023/10/11 07:58:45;;;;;;;9.52;3.97;;;21.60;99.90;;;;;;2603356;54;20085;31
2023/10/11 08:04:17;;;;;;;10.43;4.38;;;21.60;99.90;;;;;;2603202;54;20053;31
2023/10/11 08:07:19;;;;;;;6.78;3.75;;;21.80;99.90;;;;;;2603254;54;20061;31
2023/10/11 08:09:56;;;;;;;7.50;3.35;;;22.00;99.90;;;;;;2621629;46;20026;31
2023/10/11 08:12:38;;;;;;;8.05;3.70;;;22.20;99.90;;;;;;2621782;46;20042;31
2023/10/11 08:15:22;;;;;;;9.13;3.50;;;22.40;99.90;;;;;;2603210;54;20058;31
2023/10/11 08:18:00;;;;;;;11.18;3.70;;;22.60;99.90;;;;;;2603314;54;20096;31
2023/10/11 08:20:42;;;;;;;7.23;3.33;;;22.80;99.90;;;;;;2602511;54;20033;31
2023/10/11 08:23:33;;;;;;;7.67;3.30;;;22.90;99.90;;;;;;2602629;54;20025;31
2023/10/11 08:26:21;;;;;;;;;;;23.00;99.90;;;;;;2603468;54;21134;31
2023/10/11 08:29:14;;;;;;;8.65;3.83;;;23.20;99.90;;;;;;2621580;46;19940;31
2023/10/11 08:32:17;;;;;;;6.50;3.28;;;23.50;99.90;;;;;;2603033;54;20057;31
2023/10/11 08:35:05;;;;;;;8.40;3.50;;;23.60;99.90;;;;;;2603084;54;20109;31
2023/10/11 08:37:48;;;;;;;9.70;3.50;;;23.50;99.90;;;;;;2603063;54;20026;31
2023/10/11 08:40:39;;;;;;;8.65;4.20;;;23.40;99.90;;;;;;2621556;46;20089;31
2023/10/11 08:46:46;;;;;;;5.45;3.08;;;23.30;99.90;;;;;;2603036;54;20942;31
2023/10/11 08:49:41;;;;;;;8.05;3.55;;;23.30;99.90;;;;;;2603089;54;20053;31
2023/10/11 08:52:24;;;;;;;9.20;3.40;;;23.10;99.90;;;;;;2602210;54;20040;31
2023/10/11 08:55:01;;;;;;;8.73;3.95;;;23.00;99.90;;;;;;2610117;47;20057;31
2023/10/11 08:57:51;;;;;;;8.70;3.15;;;22.90;99.90;;;;;;2603348;54;20026;31
2023/10/11 09:00:33;;;;;;;7.00;3.00;;;22.80;99.90;;;;;;2603616;54;20026;31
2023/10/11 09:09:00;;;;;;;10.95;3.45;;;22.60;99.90;;;;;;2622165;46;20629;31
2023/10/11 09:11:44;;;;;;;7.73;3.03;;;22.50;99.90;;;;;;2604018;54;20031;31
2023/10/11 09:14:22;;;;;;;4.88;2.55;;;22.40;99.90;;;;;;2603991;54;20510;31
2023/10/11 09:17:29;;;;;;;8.50;3.05;;;22.50;99.90;;;;;;2603853;54;20843;31
2023/10/11 09:20:23;;;;;;;6.93;2.92;;;22.30;99.90;;;;;;2603614;54;20031;31
2023/10/11 09:23:19;;;;;;;9.15;3.58;;;22.30;99.90;;;;;;2603971;54;19938;31
2023/10/11 09:26:21;;;;;;;10.80;3.15;;;22.20;99.90;;;;;;2603794;54;20081;31
2023/10/11 09:35:38;;;;;;;7.15;2.72;;;23.00;99.90;;;;;;2621983;46;20150;31
2023/10/11 09:38:43;;;;;;;7.73;3.13;;;23.30;99.90;;;;;;2603751;54;20822;31
2023/10/11 09:51:07;;;;;;;17.33;4.27;;;23.30;99.90;;;;;;2603709;54;20027;31
2023/10/11 09:54:27;;;;;;;15.60;4.07;;;23.30;99.90;;;;;;2603743;54;20023;31
2023/10/11 09:57:08;;;;;;;7.75;3.00;;;23.40;99.90;;;;;;2603747;54;20026;31
2023/10/11 09:59:59;;;;;;;6.60;2.78;;;23.40;99.90;;;;;;2602914;54;20968;31
2023/10/11 10:02:46;;;;;;;5.38;2.90;;;23.50;99.90;;;;;;2603411;54;20574;31
2023/10/11 10:05:51;;;;;;;7.70;2.55;;;23.60;99.90;;;;;;2603606;54;20030;31
2023/10/11 10:11:30;;;;;;;7.25;2.88;;;23.60;99.90;;;;;;2603375;54;20026;31
2023/10/11 10:14:50;;;;;;;6.07;2.73;;;23.70;99.90;;;;;;2603471;54;20030;31
2023/10/11 10:17:49;;;;;;;3.58;2.33;;;23.80;99.90;;;;;;2603545;54;20033;31
2023/10/11 10:23:42;;;;;;;5.78;3.10;;;23.80;99.90;;;;;;2627285;46;20026;31
2023/10/11 10:29:07;;;;;;;6.43;2.92;;;23.70;99.90;;;;;;2603776;54;20033;31
2023/10/11 10:32:09;;;;;;;12.98;3.47;;;23.70;99.90;;;;;;2603736;54;20022;31
2023/10/11 10:35:11;;;;;;;6.17;2.70;;;23.60;99.90;;;;;;2702105;39;20477;31
2023/10/11 10:38:09;;;;;;;9.70;3.00;;;23.50;99.90;;;;;;2618204;46;20238;31
2023/10/11 10:47:18;;;;;;;6.63;2.97;;;23.10;99.90;;;;;;2603578;54;20031;31
2023/10/11 10:50:21;;;;;;;7.90;2.60;;;23.00;99.90;;;;;;2701717;39;21382;31
2023/10/11 10:53:20;;;;;;;7.45;2.78;;;23.00;99.90;;;;;;2612278;46;20245;31
2023/10/11 10:55:57;;;;;;;5.60;2.85;;;23.10;99.90;;;;;;2602721;54;20034;31
2023/10/11 10:58:50;;;;;;;9.10;3.45;;;23.10;99.90;;;;;;2604607;46;20030;31
2023/10/11 11:01:34;;;;;;;9.07;2.97;;;23.20;99.90;;;;;;2701289;39;20493;31
2023/10/11 11:15:56;;;;;;;4.85;2.53;;;23.80;99.90;;;;;;2602774;54;20056;31
2023/10/11 11:21:44;;;;;;;7.10;3.30;;;24.00;99.90;;;;;;2621434;46;20589;31
2023/10/11 11:24:27;;;;;;;6.10;2.90;;;24.10;99.90;;;;;;2603298;54;20785;31
2023/10/11 11:27:32;;;;;;;9.68;2.85;;;24.00;99.90;;;;;;2719707;39;21533;31
2023/10/11 11:30:33;;;;;;;8.35;2.90;;;23.90;99.90;;;;;;2603400;54;20786;31
2023/10/11 11:33:47;;;;;;;9.20;2.40;;;23.80;99.90;;;;;;2720093;39;20538;31
2023/10/11 11:36:51;;;;;;;5.15;2.30;;;23.70;99.90;;;;;;2621741;46;20577;31
2023/10/11 11:49:40;;;;;;;6.00;2.45;;;23.60;99.90;;;;;;2603137;54;19958;31
2023/10/11 11:52:28;;;;;;;10.43;3.00;;;23.60;99.90;;;;;;2603503;54;20022;31
2023/10/11 11:55:16;;;;;;;5.23;2.63;;;23.60;99.90;;;;;;2603391;54;21155;31
2023/10/11 11:57:57;;;;;;;10.30;3.03;;;23.60;99.90;;;;;;2621216;46;20863;31
2023/10/11 12:03:40;;;;;;;6.43;3.10;;;23.60;99.90;;;;;;2603221;54;20022;31
2023/10/11 12:06:34;;;;;;;4.75;2.60;;;23.60;99.90;;;;;;2603257;54;20027;31
2023/10/11 12:09:21;;;;;;;5.88;2.22;;;23.60;99.90;;;;;;2603412;54;21018;31
2023/10/11 12:15:03;;;;;;;7.73;2.80;;;23.50;99.90;;;;;;2621879;46;19957;31
2023/10/11 12:17:53;;;;;;;10.48;2.78;;;23.50;99.90;;;;;;2603183;54;19941;31
2023/10/11 12:20:55;;;;;;;5.13;2.60;;;23.40;99.90;;;;;;2602834;54;20554;31
2023/10/11 12:24:05;;;;;;;11.52;3.10;;;23.40;99.90;;;;;;2603194;54;20100;31
2023/10/11 12:27:05;;;;;;;5.72;2.92;;;23.40;99.90;;;;;;2603289;54;20085;31
2023/10/11 12:29:53;;;;;;;8.18;2.60;;;23.40;99.90;;;;;;2603508;54;20022;31
2023/10/11 12:32:55;;;;;;;5.57;2.20;;;23.40;99.90;;;;;;2603186;54;20564;31
2023/10/11 12:48:40;;;;;;;7.20;2.42;;;23.20;99.90;;;;;;2602476;54;20030;31
2023/10/11 12:51:24;;;;;;;5.50;2.85;;;23.10;99.90;;;;;;2607521;47;20671;31
2023/10/11 12:54:22;;;;;;;4.68;2.78;;;23.10;99.90;;;;;;2603155;54;20690;31
2023/10/11 12:57:15;;;;;;;8.18;2.38;;;23.10;99.90;;;;;;2603260;54;20026;31
2023/10/11 13:00:28;;;;;;;9.75;3.50;;;23.10;99.90;;;;;;2621178;47;20026;31
2023/10/11 13:03:25;;;;;;;7.25;3.00;;;23.10;99.90;;;;;;2701053;39;20485;31
2023/10/11 13:09:00;;;;;;;;;;;23.10;99.90;;;;;;2603380;54;20907;31
2023/10/11 13:15:11;;;;;;;;;;;;;;;;;;;;;
2023/10/11 13:20:35;;;;;;;6.75;2.60;;;23.10;99.90;;;;;;2602905;54;20089;31
2023/10/11 13:23:16;;;;;;;9.07;2.65;;;23.10;99.90;;;;;;2701483;39;21490;31
2023/10/11 13:26:10;;;;;;;6.20;3.08;;;23.10;99.90;;;;;;2621504;47;20037;31
2023/10/11 13:29:16;;;;;;;6.90;2.60;;;23.10;99.90;;;;;;2621443;47;20030;31
2023/10/11 13:32:07;;;;;;;6.72;2.60;;;23.10;99.90;;;;;;2602723;54;20946;31
2023/10/11 13:34:55;;;;;;;6.00;2.60;;;23.10;99.90;;;;;;2603134;54;20860;31
2023/10/11 13:37:33;;;;;;;6.50;2.50;;;23.10;99.90;;;;;;2621440;47;20022;31
2023/10/11 13:43:04;;;;;;;8.85;2.65;;;23.10;99.90;;;;;;2602994;54;20033;31
2023/10/11 13:45:56;;;;;;;6.47;2.50;;;23.10;99.90;;;;;;2602774;54;20113;31
2023/10/11 13:48:39;;;;;;;8.33;3.17;;;23.10;99.90;;;;;;2603883;54;20102;31
2023/10/11 13:51:19;;;;;;;5.57;2.30;;;23.10;99.90;;;;;;2603917;54;20027;31
2023/10/11 13:54:07;;;;;;;7.63;2.35;;;23.00;99.90;;;;;;2614431;46;20845;31
2023/10/11 13:56:58;;;;;;;7.15;2.95;;;23.00;99.90;;;;;;2622232;46;20100;31
2023/10/11 13:59:54;;;;;;;6.45;3.30;;;22.90;99.90;;;;;;2604038;54;20877;31
2023/10/11 14:02:58;;;;;;;;;;;;;;;;;;;;;
2023/10/11 14:14:39;;;;;;;9.17;2.90;;;22.80;99.90;;;;;;2701515;39;20488;31
2023/10/11 14:17:38;;;;;;;7.85;2.55;;;22.80;99.90;;;;;;2617134;46;20034;31
2023/10/11 14:20:40;;;;;;;3.40;2.20;;;22.70;99.90;;;;;;2672435;39;21137;31
2023/10/11 14:26:43;;;;;;;6.30;3.05;;;22.70;99.90;;;;;;2621668;46;20026;31
2023/10/11 14:29:49;;;;;;;7.15;2.20;;;22.70;99.90;;;;;;2603487;54;20828;31
2023/10/11 14:32:44;;;;;;;5.38;3.00;;;22.60;99.90;;;;;;2603353;54;20080;31
2023/10/11 14:47:45;;;;;;;8.98;3.33;;;22.40;99.90;;;;;;2773715;31;21513;31
2023/10/11 14:50:54;;;;;;;8.25;2.58;;;22.40;99.90;;;;;;2622083;46;20026;31
2023/10/11 14:53:55;;;;;;;;;;;22.40;99.90;;;;;;2603765;54;20888;31
2023/10/11 15:00:36;;;;;;;5.90;2.75;;;22.20;99.90;;;;;;2720898;39;20555;31
2023/10/11 15:10:09;;;;;;;10.37;2.57;;;22.10;99.90;;;;;;2702025;39;20485;31
2023/10/11 15:29:45;;;;;;;;;;;;;;;;;;;;;
2023/10/11 15:42:10;;;;;;;6.40;2.60;;;21.40;99.90;;;;;;2620286;46;20018;31
2023/10/11 15:45:06;;;;;;;8.05;2.90;;;21.40;99.90;;;;;;2603157;54;20050;31
2023/10/11 16:40:31;;;;;;;7.20;3.72;;;20.60;99.90;;;;;;2602314;54;19961;31
2023/10/11 16:46:46;;;;;;;8.45;3.00;;;20.60;99.90;;;;;;2602479;54;20581;31
2023/10/11 16:49:41;;;;;;;9.27;3.25;;;20.60;99.90;;;;;;2603003;54;20046;31
2023/10/11 16:52:47;;;;;;;;;;;;;;;;;;;;;
2023/10/11 16:55:51;;;;;;;5.93;3.47;;;20.50;99.90;;;;;;2603184;54;21081;31
2023/10/11 16:58:35;;;;;;;7.55;3.35;;;20.50;99.90;;;;;;2603303;54;20026;31
2023/10/11 17:07:39;;;;;;;7.65;2.92;;;20.50;99.90;;;;;;2603060;54;20082;31
2023/10/11 17:13:06;;;;;;;8.02;3.10;;;20.50;99.90;;;;;;2621157;47;20770;31
2023/10/11 17:16:05;;;;;;;9.35;4.15;;;20.50;99.90;;;;;;2603201;54;20151;31
2023/10/11 17:22:00;;;;;;;7.88;3.13;;;20.50;99.90;;;;;;2606744;46;20101;31
2023/10/11 17:27:41;;;;;;;9.30;3.83;;;20.40;99.90;;;;;;2603249;54;21171;31
2023/10/11 17:33:42;;;;;;;10.10;3.35;;;20.40;99.90;;;;;;2603754;54;20100;31
2023/10/11 17:36:30;;;;;;;11.43;3.38;;;20.20;99.90;;;;;;2603758;54;20920;31
2023/10/11 17:39:09;;;;;;;6.18;3.65;;;20.30;99.90;;;;;;2603393;54;21305;31
2023/10/11 17:47:43;;;;;;;9.13;3.80;;;20.20;99.90;;;;;;2603048;54;20601;31
2023/10/11 17:50:23;;;;;;;6.43;3.38;;;20.20;99.90;;;;;;2702108;39;20537;31
2023/10/11 17:53:13;;;;;;;8.65;3.00;;;20.20;99.90;;;;;;2603861;54;20068;31
2023/10/11 17:55:55;;;;;;;6.90;3.05;;;20.10;99.90;;;;;;2603538;54;20864;31
2023/10/11 17:58:33;;;;;;;6.68;3.25;;;20.10;99.90;;;;;;2602730;54;20019;31
2023/10/11 18:04:13;;;;;;;7.40;2.92;;;20.00;99.90;;;;;;2603636;54;20848;31
2023/10/11 18:09:45;;;;;;;9.77;3.25;;;19.90;99.90;;;;;;2603779;54;20034;31
2023/10/11 18:12:23;;;;;;;7.80;3.17;;;19.90;99.90;;;;;;2603744;54;20033;31
2023/10/11 18:15:00;;;;;;;10.77;3.40;;;19.80;99.90;;;;;;2603485;54;20037;31
2023/10/11 18:20:37;;;;;;;10.03;3.50;;;19.80;99.90;;;;;;2602752;54;20034;31
2023/10/11 18:23:20;;;;;;;8.57;3.88;;;19.70;99.90;;;;;;2605227;46;20130;31
2023/10/11 18:26:00;;;;;;;10.25;3.45;;;19.70;99.90;;;;;;2602937;54;21767;31
2023/10/11 18:28:37;;;;;;;6.18;3.28;;;19.70;99.90;;;;;;2603607;54;20022;31
2023/10/11 18:31:15;;;;;;;9.67;3.73;;;19.70;99.90;;;;;;2603506;54;20023;31
2023/10/11 18:33:58;;;;;;;8.82;3.53;;;19.60;99.90;;;;;;2603632;54;20027;31
2023/10/11 18:36:41;;;;;;;7.75;3.22;;;19.60;99.90;;;;;;2603396;54;20800;31
2023/10/11 18:39:22;;;;;;;9.35;3.30;;;19.60;99.90;;;;;;2609816;46;20030;31
2023/10/11 18:42:04;;;;;;;11.47;3.40;;;19.60;99.90;;;;;;2621962;46;20126;31
2023/10/11 18:44:43;;;;;;;5.80;3.50;;;19.60;99.90;;;;;;2621922;46;20026;31
2023/10/11 18:47:23;;;;;;;9.48;3.85;;;19.60;99.90;;;;;;2621906;46;20905;31
2023/10/11 18:50:14;;;;;;;8.77;3.00;;;19.60;99.90;;;;;;2604757;46;20972;31
2023/10/11 18:52:57;;;;;;;9.25;3.50;;;19.60;99.90;;;;;;2622399;46;20034;31
2023/10/11 18:55:42;;;;;;;8.13;3.23;;;19.60;99.90;;;;;;2603456;54;20908;31
2023/10/11 18:58:21;;;;;;;5.13;2.70;;;19.50;99.90;;;;;;2602891;54;20239;31
2023/10/11 19:01:07;;;;;;;9.30;3.40;;;19.50;99.90;;;;;;2702279;39;20995;31
2023/10/11 19:03:49;;;;;;;7.70;2.67;;;19.50;99.90;;;;;;2603435;54;20022;31
2023/10/11 19:06:29;;;;;;;5.55;3.10;;;19.50;99.90;;;;;;2621929;46;20554;31
2023/10/11 19:09:12;;;;;;;9.73;3.33;;;19.50;99.90;;;;;;2622203;46;20065;31
2023/10/11 19:11:56;;;;;;;8.45;3.90;;;19.40;99.90;;;;;;2603298;54;20903;31
2023/10/11 19:14:35;;;;;;;8.02;2.95;;;19.40;99.90;;;;;;2602634;54;20879;31
2023/10/11 19:17:13;;;;;;;7.68;3.42;;;19.30;99.90;;;;;;2621924;46;20054;31
2023/10/11 19:19:47;;;;;;;10.40;4.00;;;19.30;99.90;;;;;;2622183;46;20027;31
2023/10/11 19:22:30;;;;;;;6.70;3.55;;;19.30;99.90;;;;;;2603471;54;20031;31
2023/10/11 19:25:13;;;;;;;7.95;3.85;;;19.20;99.90;;;;;;2702052;39;20437;31
2023/10/11 19:27:55;;;;;;;8.13;3.70;;;19.20;99.90;;;;;;2603316;54;20857;31
2023/10/11 19:30:42;;;;;;;7.03;3.60;;;19.10;99.90;;;;;;2603344;54;20038;31
2023/10/11 19:33:18;;;;;;;8.48;3.72;;;19.10;99.90;;;;;;2603225;54;20911;31
2023/10/11 19:36:02;;;;;;;9.53;3.90;;;19.10;99.90;;;;;;2603259;54;20052;31
2023/10/11 19:38:38;;;;;;;11.15;3.75;;;19.10;99.90;;;;;;2621829;46;21791;31
2023/10/11 19:41:18;;;;;;;11.15;4.15;;;19.10;99.90;;;;;;2701463;39;21699;31
2023/10/11 19:43:57;;;;;;;7.73;3.90;;;19.00;99.90;;;;;;2603180;54;20831;31
2023/10/11 19:46:37;;;;;;;11.25;3.70;;;19.00;99.90;;;;;;2602616;54;21835;31
2023/10/11 19:49:14;;;;;;;9.35;4.10;;;19.00;99.90;;;;;;2701019;39;21514;31
2023/10/11 19:51:52;;;;;;;10.18;5.00;;;18.90;99.90;;;;;;2701627;39;20559;31
2023/10/11 19:54:30;;;;;;;10.55;5.13;;;18.80;99.90;;;;;;2603383;54;20026;31
2023/10/11 19:57:11;;;;;;;6.78;4.00;;;18.80;99.90;;;;;;2621514;46;20053;31
2023/10/11 19:59:48;;;;;;;12.80;5.35;;;18.70;99.90;;;;;;2603505;54;20033;31
2023/10/11 20:02:28;;;;;;;9.65;4.03;;;18.70;99.90;;;;;;2603234;54;20026;31
2023/10/11 20:07:40;;;;;;;12.90;4.50;;;18.60;99.90;;;;;;2603349;54;20037;31
2023/10/11 20:10:15;;;;;;;;;;;18.60;99.90;;;;;;2603503;54;20830;31
2023/10/11 20:12:56;;;;;;;10.80;4.10;;;18.50;99.90;;;;;;2603511;54;20472;31
2023/10/11 20:15:36;;;;;;;11.45;3.90;;;18.50;99.90;;;;;;2621921;46;20038;31
2023/10/11 20:18:12;;;;;;;8.50;3.80;;;18.50;99.90;;;;;;2621619;46;20097;31
2023/10/11 20:20:53;;;;;;;8.80;3.75;;;18.50;99.90;;;;;;2603221;54;20023;31
2023/10/11 20:23:36;;;;;;;9.75;4.10;;;18.40;99.90;;;;;;2602949;54;20085;31
2023/10/11 20:26:17;;;;;;;9.80;4.00;;;18.40;99.90;;;;;;2603182;54;20026;31
2023/10/11 20:29:00;;;;;;;10.35;4.80;;;18.40;99.90;;;;;;2603116;54;20114;31
2023/10/11 20:31:37;;;;;;;7.75;3.75;;;18.40;99.90;;;;;;2603104;54;20033;31
2023/10/11 20:34:17;;;;;;;8.93;4.30;;;18.40;99.90;;;;;;2603276;54;20030;31
2023/10/11 20:37:01;;;;;;;6.75;3.90;;;18.40;99.90;;;;;;2701704;39;20564;31
2023/10/11 20:39:38;;;;;;;11.80;4.30;;;18.40;99.90;;;;;;2621137;46;20031;31
2023/10/11 20:42:19;;;;;;;9.68;4.70;;;18.40;99.90;;;;;;2615256;46;20913;31
2023/10/11 20:45:02;;;;;;;8.35;4.43;;;18.30;99.90;;;;;;2603137;54;20030;31
2023/10/11 20:47:41;;;;;;;14.45;4.65;;;18.30;99.90;;;;;;2603042;54;20026;31
2023/10/11 20:50:28;;;;;;;12.02;4.47;;;18.30;99.90;;;;;;2603259;54;21806;31
2023/10/11 20:53:06;;;;;;;7.90;4.13;;;18.30;99.90;;;;;;2603280;54;20093;31
2023/10/11 20:55:48;;;;;;;9.53;4.50;;;18.30;99.90;;;;;;2603975;54;20026;31
2023/10/11 21:01:12;;;;;;;9.63;4.68;;;18.20;99.90;;;;;;2603786;54;20029;31
2023/10/11 21:03:52;;;;;;;7.50;4.43;;;18.20;99.90;;;;;;2603808;54;20022;31
2023/10/11 21:06:31;;;;;;;11.60;4.97;;;18.20;99.90;;;;;;2621800;46;20884;31
2023/10/11 21:09:07;;;;;;;8.55;4.45;;;18.20;99.90;;;;;;2603901;54;20071;31
2023/10/11 21:11:43;;;;;;;;;;;18.20;99.90;;;;;;2604139;54;20031;31
2023/10/11 21:14:22;;;;;;;7.40;4.18;;;18.10;99.90;;;;;;2603687;54;20729;31
2023/10/11 21:19:41;;;;;;;11.25;4.63;;;18.10;99.90;;;;;;2603634;54;19946;31
2023/10/11 21:22:21;;;;;;;9.10;4.30;;;18.10;99.90;;;;;;2603565;54;20099;31
2023/10/11 21:24:56;;;;;;;7.82;4.00;;;18.10;99.90;;;;;;2603570;54;20981;31
2023/10/11 21:27:31;;;;;;;7.35;4.03;;;18.10;99.90;;;;;;2603662;54;20026;31
2023/10/11 21:30:17;;;;;;;8.18;4.18;;;18.00;99.90;;;;;;2603640;54;21199;31
2023/10/11 21:32:57;;;;;;;8.67;3.67;;;18.00;99.90;;;;;;2602999;54;21005;31
2023/10/11 21:35:41;;;;;;;9.65;4.10;;;18.00;99.90;;;;;;2603657;54;20164;31
2023/10/11 21:38:20;;;;;;;9.77;4.38;;;18.00;99.90;;;;;;2603737;54;20101;31